sensor_id;sensor_type;location;lat;lon;timestamp;P1;durP1;ratioP1;P2;durP2;ratioP2
8654;SDS011;13500;52.514;13.462;2023-07-13T00:01:40;5.40;;;2.80;;
8654;SDS011;13500;52.514;13.462;2023-07-13T00:04:10;4.73;;;3.00;;
8654;SDS011;13500;52.514;13.462;2023-07-13T00:06:39;4.23;;;2.90;;
8654;SDS011;13500;52.514;13.462;2023-07-13T00:09:11;5.30;;;2.83;;
8654;SDS011;13500;52.514;13.462;2023-07-13T00:11:42;3.60;;;2.83;;
8654;SDS011;13500;52.514;13.462;2023-07-13T00:14:13;8.43;;;3.20;;
8654;SDS011;13500;52.514;13.462;2023-07-13T00:16:43;6.90;;;3.47;;
8654;SDS011;13500;52.514;13.462;2023-07-13T00:19:12;5.77;;;3.10;;
8654;SDS011;13500;52.514;13.462;2023-07-13T00:21:42;4.57;;;3.13;;
8654;SDS011;13500;52.514;13.462;2023-07-13T00:24:16;5.90;;;3.43;;
8654;SDS011;13500;52.514;13.462;2023-07-13T00:26:50;3.87;;;3.10;;
8654;SDS011;13500;52.514;13.462;2023-07-13T00:29:25;4.50;;;2.50;;
8654;SDS011;13500;52.514;13.462;2023-07-13T00:31:54;6.27;;;2.87;;
8654;SDS011;13500;52.514;13.462;2023-07-13T00:34:24;3.67;;;2.77;;
8654;SDS011;13500;52.514;13.462;2023-07-13T00:36:53;5.00;;;3.13;;
8654;SDS011;13500;52.514;13.462;2023-07-13T00:39:23;5.33;;;3.13;;
8654;SDS011;13500;52.514;13.462;2023-07-13T00:41:52;4.13;;;2.60;;
8654;SDS011;13500;52.514;13.462;2023-07-13T00:44:20;4.30;;;2.67;;
8654;SDS011;13500;52.514;13.462;2023-07-13T00:46:52;3.33;;;2.63;;
8654;SDS011;13500;52.514;13.462;2023-07-13T00:49:23;3.60;;;2.63;;
8654;SDS011;13500;52.514;13.462;2023-07-13T00:51:53;4.50;;;2.70;;
8654;SDS011;13500;52.514;13.462;2023-07-13T00:54:24;3.63;;;2.60;;
8654;SDS011;13500;52.514;13.462;2023-07-13T00:56:55;3.83;;;2.67;;
8654;SDS011;13500;52.514;13.462;2023-07-13T00:59:26;5.73;;;2.63;;
8654;SDS011;13500;52.514;13.462;2023-07-13T01:01:55;3.23;;;2.47;;
8654;SDS011;13500;52.514;13.462;2023-07-13T01:04:25;4.60;;;2.67;;
8654;SDS011;13500;52.514;13.462;2023-07-13T01:06:54;5.27;;;2.70;;
8654;SDS011;13500;52.514;13.462;2023-07-13T01:09:23;4.23;;;2.60;;
8654;SDS011;13500;52.514;13.462;2023-07-13T01:11:52;4.27;;;2.60;;
8654;SDS011;13500;52.514;13.462;2023-07-13T01:14:20;3.90;;;2.47;;
8654;SDS011;13500;52.514;13.462;2023-07-13T01:16:49;3.37;;;2.13;;
8654;SDS011;13500;52.514;13.462;2023-07-13T01:19:25;3.17;;;2.17;;
8654;SDS011;13500;52.514;13.462;2023-07-13T01:22:05;4.47;;;2.77;;
8654;SDS011;13500;52.514;13.462;2023-07-13T01:24:37;2.73;;;2.30;;
8654;SDS011;13500;52.514;13.462;2023-07-13T01:27:08;3.17;;;2.30;;
8654;SDS011;13500;52.514;13.462;2023-07-13T01:29:41;4.07;;;2.23;;
8654;SDS011;13500;52.514;13.462;2023-07-13T01:32:15;3.50;;;2.13;;
8654;SDS011;13500;52.514;13.462;2023-07-13T01:34:53;3.73;;;2.40;;
8654;SDS011;13500;52.514;13.462;2023-07-13T01:37:23;3.00;;;2.20;;
8654;SDS011;13500;52.514;13.462;2023-07-13T01:39:53;3.80;;;2.40;;
8654;SDS011;13500;52.514;13.462;2023-07-13T01:42:23;3.23;;;2.40;;
8654;SDS011;13500;52.514;13.462;2023-07-13T01:44:53;4.63;;;2.33;;
8654;SDS011;13500;52.514;13.462;2023-07-13T01:47:21;2.97;;;2.27;;
8654;SDS011;13500;52.514;13.462;2023-07-13T01:49:50;5.20;;;2.53;;
8654;SDS011;13500;52.514;13.462;2023-07-13T01:52:20;3.50;;;2.20;;
8654;SDS011;13500;52.514;13.462;2023-07-13T01:54:51;4.47;;;2.47;;
8654;SDS011;13500;52.514;13.462;2023-07-13T01:57:22;6.37;;;2.87;;
8654;SDS011;13500;52.514;13.462;2023-07-13T01:59:51;4.33;;;2.63;;
8654;SDS011;13500;52.514;13.462;2023-07-13T02:02:19;3.77;;;2.50;;
8654;SDS011;13500;52.514;13.462;2023-07-13T02:04:49;3.13;;;2.30;;
8654;SDS011;13500;52.514;13.462;2023-07-13T02:07:23;4.80;;;2.53;;
8654;SDS011;13500;52.514;13.462;2023-07-13T02:09:52;3.60;;;2.33;;
8654;SDS011;13500;52.514;13.462;2023-07-13T02:12:21;3.83;;;2.53;;
8654;SDS011;13500;52.514;13.462;2023-07-13T02:14:50;4.10;;;2.60;;
8654;SDS011;13500;52.514;13.462;2023-07-13T02:17:21;4.23;;;2.73;;
8654;SDS011;13500;52.514;13.462;2023-07-13T02:19:50;4.73;;;2.80;;
8654;SDS011;13500;52.514;13.462;2023-07-13T02:22:20;4.37;;;2.53;;
8654;SDS011;13500;52.514;13.462;2023-07-13T02:24:51;5.50;;;3.10;;
8654;SDS011;13500;52.514;13.462;2023-07-13T02:27:19;4.43;;;2.70;;
8654;SDS011;13500;52.514;13.462;2023-07-13T02:29:50;4.07;;;2.70;;
8654;SDS011;13500;52.514;13.462;2023-07-13T02:32:21;4.07;;;2.60;;
8654;SDS011;13500;52.514;13.462;2023-07-13T02:34:53;4.73;;;2.87;;
8654;SDS011;13500;52.514;13.462;2023-07-13T02:37:40;4.43;;;2.73;;
8654;SDS011;13500;52.514;13.462;2023-07-13T02:40:09;3.40;;;2.43;;
8654;SDS011;13500;52.514;13.462;2023-07-13T02:42:38;3.90;;;2.50;;
8654;SDS011;13500;52.514;13.462;2023-07-13T02:45:08;4.23;;;2.50;;
8654;SDS011;13500;52.514;13.462;2023-07-13T02:47:39;2.77;;;2.37;;
8654;SDS011;13500;52.514;13.462;2023-07-13T02:50:08;4.77;;;3.20;;
8654;SDS011;13500;52.514;13.462;2023-07-13T02:52:38;3.23;;;2.33;;
8654;SDS011;13500;52.514;13.462;2023-07-13T02:55:10;3.67;;;2.60;;
8654;SDS011;13500;52.514;13.462;2023-07-13T02:57:41;4.20;;;2.60;;
8654;SDS011;13500;52.514;13.462;2023-07-13T03:00:10;4.97;;;2.57;;
8654;SDS011;13500;52.514;13.462;2023-07-13T03:02:44;5.13;;;3.10;;
8654;SDS011;13500;52.514;13.462;2023-07-13T03:05:13;4.17;;;2.73;;
8654;SDS011;13500;52.514;13.462;2023-07-13T03:07:42;3.93;;;2.70;;
8654;SDS011;13500;52.514;13.462;2023-07-13T03:10:14;4.27;;;3.03;;
8654;SDS011;13500;52.514;13.462;2023-07-13T03:12:48;4.07;;;2.70;;
8654;SDS011;13500;52.514;13.462;2023-07-13T03:15:23;4.30;;;2.80;;
8654;SDS011;13500;52.514;13.462;2023-07-13T03:17:55;4.57;;;2.87;;
8654;SDS011;13500;52.514;13.462;2023-07-13T03:20:23;4.23;;;3.10;;
8654;SDS011;13500;52.514;13.462;2023-07-13T03:22:52;6.77;;;3.10;;
8654;SDS011;13500;52.514;13.462;2023-07-13T03:25:22;4.43;;;2.70;;
8654;SDS011;13500;52.514;13.462;2023-07-13T03:27:54;3.53;;;2.60;;
8654;SDS011;13500;52.514;13.462;2023-07-13T03:30:26;4.50;;;3.10;;
8654;SDS011;13500;52.514;13.462;2023-07-13T03:32:56;3.33;;;2.67;;
8654;SDS011;13500;52.514;13.462;2023-07-13T03:35:27;4.97;;;2.70;;
8654;SDS011;13500;52.514;13.462;2023-07-13T03:37:56;5.23;;;2.83;;
8654;SDS011;13500;52.514;13.462;2023-07-13T03:40:30;4.30;;;2.67;;
8654;SDS011;13500;52.514;13.462;2023-07-13T03:42:59;3.43;;;2.90;;
8654;SDS011;13500;52.514;13.462;2023-07-13T03:45:31;4.17;;;2.90;;
8654;SDS011;13500;52.514;13.462;2023-07-13T03:47:59;4.20;;;2.77;;
8654;SDS011;13500;52.514;13.462;2023-07-13T03:50:30;7.03;;;3.00;;
8654;SDS011;13500;52.514;13.462;2023-07-13T03:53:01;4.73;;;2.93;;
8654;SDS011;13500;52.514;13.462;2023-07-13T03:55:35;4.50;;;3.03;;
8654;SDS011;13500;52.514;13.462;2023-07-13T04:01:07;4.33;;;2.70;;
8654;SDS011;13500;52.514;13.462;2023-07-13T04:03:42;6.20;;;3.00;;
8654;SDS011;13500;52.514;13.462;2023-07-13T04:06:14;3.80;;;2.40;;
8654;SDS011;13500;52.514;13.462;2023-07-13T04:08:48;4.87;;;2.80;;
8654;SDS011;13500;52.514;13.462;2023-07-13T04:11:20;6.60;;;2.77;;
8654;SDS011;13500;52.514;13.462;2023-07-13T04:13:49;5.20;;;2.60;;
8654;SDS011;13500;52.514;13.462;2023-07-13T04:16:19;4.23;;;2.60;;
8654;SDS011;13500;52.514;13.462;2023-07-13T04:18:47;4.93;;;2.50;;
8654;SDS011;13500;52.514;13.462;2023-07-13T04:21:20;6.33;;;2.77;;
8654;SDS011;13500;52.514;13.462;2023-07-13T04:23:50;4.37;;;2.70;;
8654;SDS011;13500;52.514;13.462;2023-07-13T04:26:21;4.10;;;2.60;;
8654;SDS011;13500;52.514;13.462;2023-07-13T04:28:53;4.83;;;2.53;;
8654;SDS011;13500;52.514;13.462;2023-07-13T04:31:22;4.23;;;2.40;;
8654;SDS011;13500;52.514;13.462;2023-07-13T04:33:52;4.27;;;2.03;;
8654;SDS011;13500;52.514;13.462;2023-07-13T04:36:20;3.93;;;2.50;;
8654;SDS011;13500;52.514;13.462;2023-07-13T04:38:51;3.57;;;2.30;;
8654;SDS011;13500;52.514;13.462;2023-07-13T04:41:23;4.03;;;2.33;;
8654;SDS011;13500;52.514;13.462;2023-07-13T04:43:51;5.03;;;2.10;;
8654;SDS011;13500;52.514;13.462;2023-07-13T04:46:23;4.53;;;2.00;;
8654;SDS011;13500;52.514;13.462;2023-07-13T04:48:52;4.27;;;2.20;;
8654;SDS011;13500;52.514;13.462;2023-07-13T04:51:21;3.30;;;2.37;;
8654;SDS011;13500;52.514;13.462;2023-07-13T04:53:49;4.00;;;2.40;;
8654;SDS011;13500;52.514;13.462;2023-07-13T04:56:28;4.83;;;2.57;;
8654;SDS011;13500;52.514;13.462;2023-07-13T04:58:56;4.50;;;2.40;;
8654;SDS011;13500;52.514;13.462;2023-07-13T05:01:26;5.10;;;2.30;;
8654;SDS011;13500;52.514;13.462;2023-07-13T05:03:55;4.83;;;2.17;;
8654;SDS011;13500;52.514;13.462;2023-07-13T05:06:25;5.50;;;2.80;;
8654;SDS011;13500;52.514;13.462;2023-07-13T05:08:55;4.70;;;2.30;;
8654;SDS011;13500;52.514;13.462;2023-07-13T05:11:25;4.93;;;2.33;;
8654;SDS011;13500;52.514;13.462;2023-07-13T05:13:58;4.13;;;2.13;;
8654;SDS011;13500;52.514;13.462;2023-07-13T05:16:30;3.77;;;2.13;;
8654;SDS011;13500;52.514;13.462;2023-07-13T05:19:00;3.13;;;2.20;;
8654;SDS011;13500;52.514;13.462;2023-07-13T05:21:31;4.57;;;2.27;;
8654;SDS011;13500;52.514;13.462;2023-07-13T05:24:01;4.50;;;2.40;;
8654;SDS011;13500;52.514;13.462;2023-07-13T05:26:49;6.33;;;2.20;;
8654;SDS011;13500;52.514;13.462;2023-07-13T05:29:19;7.00;;;2.40;;
8654;SDS011;13500;52.514;13.462;2023-07-13T05:31:47;2.70;;;2.10;;
8654;SDS011;13500;52.514;13.462;2023-07-13T05:34:21;4.47;;;2.13;;
8654;SDS011;13500;52.514;13.462;2023-07-13T05:36:51;4.53;;;2.37;;
8654;SDS011;13500;52.514;13.462;2023-07-13T05:39:19;6.90;;;2.30;;
8654;SDS011;13500;52.514;13.462;2023-07-13T05:41:58;5.63;;;2.20;;
8654;SDS011;13500;52.514;13.462;2023-07-13T05:44:29;4.40;;;2.17;;
8654;SDS011;13500;52.514;13.462;2023-07-13T05:46:59;3.93;;;2.30;;
8654;SDS011;13500;52.514;13.462;2023-07-13T05:49:27;5.70;;;2.77;;
8654;SDS011;13500;52.514;13.462;2023-07-13T05:51:58;4.53;;;2.47;;
8654;SDS011;13500;52.514;13.462;2023-07-13T05:54:27;3.60;;;2.50;;
8654;SDS011;13500;52.514;13.462;2023-07-13T05:56:58;5.03;;;2.70;;
8654;SDS011;13500;52.514;13.462;2023-07-13T05:59:28;6.20;;;3.10;;
8654;SDS011;13500;52.514;13.462;2023-07-13T06:01:57;7.47;;;2.50;;
8654;SDS011;13500;52.514;13.462;2023-07-13T06:04:27;6.63;;;2.70;;
8654;SDS011;13500;52.514;13.462;2023-07-13T06:06:56;5.80;;;3.07;;
8654;SDS011;13500;52.514;13.462;2023-07-13T06:09:28;5.30;;;2.70;;
8654;SDS011;13500;52.514;13.462;2023-07-13T06:11:57;6.70;;;3.13;;
8654;SDS011;13500;52.514;13.462;2023-07-13T06:14:29;5.47;;;2.60;;
8654;SDS011;13500;52.514;13.462;2023-07-13T06:16:57;8.67;;;3.23;;
8654;SDS011;13500;52.514;13.462;2023-07-13T06:19:25;6.87;;;3.67;;
8654;SDS011;13500;52.514;13.462;2023-07-13T06:21:54;5.33;;;2.70;;
8654;SDS011;13500;52.514;13.462;2023-07-13T06:24:26;5.70;;;2.50;;
8654;SDS011;13500;52.514;13.462;2023-07-13T06:26:54;3.27;;;2.40;;
8654;SDS011;13500;52.514;13.462;2023-07-13T06:29:25;4.47;;;2.37;;
8654;SDS011;13500;52.514;13.462;2023-07-13T06:31:56;6.27;;;2.60;;
8654;SDS011;13500;52.514;13.462;2023-07-13T06:34:25;4.80;;;2.60;;
8654;SDS011;13500;52.514;13.462;2023-07-13T06:36:56;5.30;;;2.87;;
8654;SDS011;13500;52.514;13.462;2023-07-13T06:39:26;6.20;;;2.60;;
8654;SDS011;13500;52.514;13.462;2023-07-13T06:41:55;4.30;;;2.50;;
8654;SDS011;13500;52.514;13.462;2023-07-13T06:44:25;3.87;;;2.50;;
8654;SDS011;13500;52.514;13.462;2023-07-13T06:46:55;5.27;;;2.43;;
8654;SDS011;13500;52.514;13.462;2023-07-13T06:49:24;3.50;;;2.50;;
8654;SDS011;13500;52.514;13.462;2023-07-13T06:51:52;5.53;;;2.57;;
8654;SDS011;13500;52.514;13.462;2023-07-13T06:54:21;4.70;;;2.37;;
8654;SDS011;13500;52.514;13.462;2023-07-13T06:56:49;5.47;;;2.50;;
8654;SDS011;13500;52.514;13.462;2023-07-13T06:59:18;8.00;;;2.47;;
8654;SDS011;13500;52.514;13.462;2023-07-13T07:01:50;5.43;;;2.20;;
8654;SDS011;13500;52.514;13.462;2023-07-13T07:04:19;3.97;;;2.07;;
8654;SDS011;13500;52.514;13.462;2023-07-13T07:06:49;3.77;;;2.43;;
8654;SDS011;13500;52.514;13.462;2023-07-13T07:09:26;5.67;;;2.13;;
8654;SDS011;13500;52.514;13.462;2023-07-13T07:11:56;4.00;;;2.07;;
8654;SDS011;13500;52.514;13.462;2023-07-13T07:14:30;4.87;;;2.30;;
8654;SDS011;13500;52.514;13.462;2023-07-13T07:17:02;5.93;;;2.00;;
8654;SDS011;13500;52.514;13.462;2023-07-13T07:19:36;6.00;;;2.27;;
8654;SDS011;13500;52.514;13.462;2023-07-13T07:22:07;4.93;;;2.00;;
8654;SDS011;13500;52.514;13.462;2023-07-13T07:24:35;5.10;;;2.13;;
8654;SDS011;13500;52.514;13.462;2023-07-13T07:27:06;3.97;;;1.87;;
8654;SDS011;13500;52.514;13.462;2023-07-13T07:29:38;5.53;;;1.73;;
8654;SDS011;13500;52.514;13.462;2023-07-13T07:32:13;4.30;;;2.47;;
8654;SDS011;13500;52.514;13.462;2023-07-13T07:35:03;4.67;;;1.80;;
8654;SDS011;13500;52.514;13.462;2023-07-13T07:37:33;3.13;;;2.20;;
8654;SDS011;13500;52.514;13.462;2023-07-13T07:40:05;5.67;;;2.00;;
8654;SDS011;13500;52.514;13.462;2023-07-13T07:42:40;2.30;;;1.70;;
8654;SDS011;13500;52.514;13.462;2023-07-13T07:45:09;5.13;;;1.90;;
8654;SDS011;13500;52.514;13.462;2023-07-13T07:47:39;2.00;;;1.60;;
8654;SDS011;13500;52.514;13.462;2023-07-13T07:50:09;7.60;;;2.10;;
8654;SDS011;13500;52.514;13.462;2023-07-13T07:52:40;4.07;;;1.63;;
8654;SDS011;13500;52.514;13.462;2023-07-13T07:55:08;2.67;;;1.70;;
8654;SDS011;13500;52.514;13.462;2023-07-13T07:57:39;6.43;;;2.00;;
8654;SDS011;13500;52.514;13.462;2023-07-13T08:00:12;4.13;;;1.53;;
8654;SDS011;13500;52.514;13.462;2023-07-13T08:02:48;5.37;;;2.00;;
8654;SDS011;13500;52.514;13.462;2023-07-13T08:05:21;3.93;;;1.80;;
8654;SDS011;13500;52.514;13.462;2023-07-13T08:08:09;3.73;;;1.90;;
8654;SDS011;13500;52.514;13.462;2023-07-13T08:10:38;3.57;;;2.00;;
8654;SDS011;13500;52.514;13.462;2023-07-13T11:33:09;3.43;;;2.47;;
8654;SDS011;13500;52.514;13.462;2023-07-13T11:35:41;5.37;;;2.63;;
8654;SDS011;13500;52.514;13.462;2023-07-13T11:38:13;5.33;;;2.90;;
8654;SDS011;13500;52.514;13.462;2023-07-13T11:40:43;4.40;;;2.27;;
8654;SDS011;13500;52.514;13.462;2023-07-13T11:43:22;4.53;;;2.50;;
8654;SDS011;13500;52.514;13.462;2023-07-13T11:45:51;3.80;;;2.57;;
8654;SDS011;13500;52.514;13.462;2023-07-13T11:48:22;4.07;;;2.40;;
8654;SDS011;13500;52.514;13.462;2023-07-13T11:50:53;4.10;;;2.57;;
8654;SDS011;13500;52.514;13.462;2023-07-13T11:53:25;3.80;;;2.27;;
8654;SDS011;13500;52.514;13.462;2023-07-13T11:55:55;3.63;;;2.40;;
8654;SDS011;13500;52.514;13.462;2023-07-13T11:58:24;4.10;;;2.60;;
8654;SDS011;13500;52.514;13.462;2023-07-13T12:00:55;5.10;;;2.40;;
8654;SDS011;13500;52.514;13.462;2023-07-13T12:03:28;5.20;;;2.47;;
8654;SDS011;13500;52.514;13.462;2023-07-13T12:05:57;11.33;;;2.93;;
8654;SDS011;13500;52.514;13.462;2023-07-13T12:08:27;6.10;;;2.40;;
8654;SDS011;13500;52.514;13.462;2023-07-13T12:10:56;5.50;;;2.40;;
8654;SDS011;13500;52.514;13.462;2023-07-13T12:13:26;5.97;;;2.73;;
8654;SDS011;13500;52.514;13.462;2023-07-13T12:15:56;6.47;;;2.30;;
8654;SDS011;13500;52.514;13.462;2023-07-13T12:18:29;5.70;;;2.73;;
8654;SDS011;13500;52.514;13.462;2023-07-13T12:21:00;3.57;;;2.30;;
8654;SDS011;13500;52.514;13.462;2023-07-13T12:23:30;4.63;;;2.50;;
8654;SDS011;13500;52.514;13.462;2023-07-13T12:26:01;5.93;;;2.50;;
8654;SDS011;13500;52.514;13.462;2023-07-13T12:28:31;4.00;;;2.37;;
8654;SDS011;13500;52.514;13.462;2023-07-13T12:31:01;4.20;;;2.23;;
8654;SDS011;13500;52.514;13.462;2023-07-13T12:33:33;4.10;;;2.57;;
8654;SDS011;13500;52.514;13.462;2023-07-13T12:36:04;5.87;;;2.40;;
8654;SDS011;13500;52.514;13.462;2023-07-13T12:38:33;5.37;;;2.40;;
8654;SDS011;13500;52.514;13.462;2023-07-13T12:41:01;5.30;;;2.60;;
8654;SDS011;13500;52.514;13.462;2023-07-13T12:43:31;5.67;;;2.60;;
8654;SDS011;13500;52.514;13.462;2023-07-13T12:46:04;3.73;;;2.33;;
8654;SDS011;13500;52.514;13.462;2023-07-13T12:48:47;2.90;;;2.03;;
8654;SDS011;13500;52.514;13.462;2023-07-13T12:51:26;5.90;;;2.20;;
8654;SDS011;13500;52.514;13.462;2023-07-13T12:53:56;5.60;;;2.30;;
8654;SDS011;13500;52.514;13.462;2023-07-13T12:56:27;4.60;;;2.00;;
8654;SDS011;13500;52.514;13.462;2023-07-13T12:58:57;5.47;;;2.30;;
8654;SDS011;13500;52.514;13.462;2023-07-13T13:01:26;4.80;;;2.30;;
8654;SDS011;13500;52.514;13.462;2023-07-13T13:03:56;4.93;;;2.10;;
8654;SDS011;13500;52.514;13.462;2023-07-13T13:06:30;4.63;;;2.20;;
8654;SDS011;13500;52.514;13.462;2023-07-13T13:08:59;4.07;;;2.10;;
8654;SDS011;13500;52.514;13.462;2023-07-13T13:11:29;4.97;;;2.20;;
8654;SDS011;13500;52.514;13.462;2023-07-13T13:13:58;4.83;;;2.40;;
8654;SDS011;13500;52.514;13.462;2023-07-13T13:16:29;3.67;;;2.00;;
8654;SDS011;13500;52.514;13.462;2023-07-13T13:19:01;5.83;;;2.10;;
8654;SDS011;13500;52.514;13.462;2023-07-13T13:21:42;3.10;;;2.00;;
8654;SDS011;13500;52.514;13.462;2023-07-13T13:24:11;4.70;;;2.17;;
8654;SDS011;13500;52.514;13.462;2023-07-13T13:26:40;6.07;;;2.00;;
8654;SDS011;13500;52.514;13.462;2023-07-13T13:29:11;4.30;;;1.93;;
8654;SDS011;13500;52.514;13.462;2023-07-13T13:31:41;3.10;;;2.00;;
8654;SDS011;13500;52.514;13.462;2023-07-13T13:34:11;4.00;;;2.07;;
8654;SDS011;13500;52.514;13.462;2023-07-13T13:36:41;2.97;;;1.90;;
8654;SDS011;13500;52.514;13.462;2023-07-13T13:39:15;3.00;;;2.30;;
8654;SDS011;13500;52.514;13.462;2023-07-13T13:41:47;3.90;;;2.10;;
8654;SDS011;13500;52.514;13.462;2023-07-13T13:44:15;4.83;;;2.10;;
8654;SDS011;13500;52.514;13.462;2023-07-13T13:46:44;3.37;;;2.30;;
8654;SDS011;13500;52.514;13.462;2023-07-13T13:49:15;3.53;;;2.07;;
8654;SDS011;13500;52.514;13.462;2023-07-13T13:51:45;3.87;;;2.00;;
8654;SDS011;13500;52.514;13.462;2023-07-13T13:54:16;4.33;;;1.90;;
8654;SDS011;13500;52.514;13.462;2023-07-13T13:56:45;6.17;;;2.00;;
8654;SDS011;13500;52.514;13.462;2023-07-13T13:59:14;3.53;;;2.07;;
8654;SDS011;13500;52.514;13.462;2023-07-13T14:01:43;4.97;;;2.10;;
8654;SDS011;13500;52.514;13.462;2023-07-13T14:04:13;3.50;;;2.07;;
8654;SDS011;13500;52.514;13.462;2023-07-13T14:06:45;4.63;;;1.70;;
8654;SDS011;13500;52.514;13.462;2023-07-13T14:09:14;5.13;;;1.90;;
8654;SDS011;13500;52.514;13.462;2023-07-13T14:11:44;4.00;;;1.90;;
8654;SDS011;13500;52.514;13.462;2023-07-13T14:14:17;3.23;;;1.60;;
8654;SDS011;13500;52.514;13.462;2023-07-13T14:16:45;4.40;;;1.90;;
8654;SDS011;13500;52.514;13.462;2023-07-13T14:19:21;3.53;;;2.07;;
8654;SDS011;13500;52.514;13.462;2023-07-13T14:21:50;4.17;;;2.10;;
8654;SDS011;13500;52.514;13.462;2023-07-13T14:24:20;3.67;;;1.97;;
8654;SDS011;13500;52.514;13.462;2023-07-13T14:26:48;3.07;;;2.10;;
8654;SDS011;13500;52.514;13.462;2023-07-13T14:29:17;2.93;;;1.90;;
8654;SDS011;13500;52.514;13.462;2023-07-13T14:31:50;3.27;;;2.00;;
8654;SDS011;13500;52.514;13.462;2023-07-13T14:34:18;5.67;;;2.00;;
8654;SDS011;13500;52.514;13.462;2023-07-13T14:36:48;5.33;;;1.87;;
8654;SDS011;13500;52.514;13.462;2023-07-13T14:39:18;5.97;;;2.03;;
8654;SDS011;13500;52.514;13.462;2023-07-13T14:41:49;2.23;;;1.53;;
8654;SDS011;13500;52.514;13.462;2023-07-13T14:44:20;5.47;;;1.87;;
8654;SDS011;13500;52.514;13.462;2023-07-13T14:46:50;3.87;;;2.00;;
8654;SDS011;13500;52.514;13.462;2023-07-13T14:49:21;4.67;;;2.17;;
8654;SDS011;13500;52.514;13.462;2023-07-13T14:51:53;3.57;;;1.70;;
8654;SDS011;13500;52.514;13.462;2023-07-13T14:54:24;2.53;;;1.80;;
8654;SDS011;13500;52.514;13.462;2023-07-13T14:56:52;2.50;;;1.80;;
8654;SDS011;13500;52.514;13.462;2023-07-13T14:59:20;3.07;;;1.70;;
8654;SDS011;13500;52.514;13.462;2023-07-13T15:01:49;4.00;;;2.17;;
8654;SDS011;13500;52.514;13.462;2023-07-13T15:04:18;4.33;;;2.00;;
8654;SDS011;13500;52.514;13.462;2023-07-13T15:06:54;4.10;;;2.00;;
8654;SDS011;13500;52.514;13.462;2023-07-13T15:09:23;1.80;;;1.57;;
8654;SDS011;13500;52.514;13.462;2023-07-13T15:11:52;4.20;;;1.80;;
8654;SDS011;13500;52.514;13.462;2023-07-13T15:14:20;3.97;;;1.80;;
8654;SDS011;13500;52.514;13.462;2023-07-13T15:16:49;2.57;;;1.90;;
8654;SDS011;13500;52.514;13.462;2023-07-13T15:19:17;4.10;;;1.90;;
8654;SDS011;13500;52.514;13.462;2023-07-13T15:21:46;3.80;;;1.40;;
8654;SDS011;13500;52.514;13.462;2023-07-13T15:24:15;3.13;;;1.60;;
8654;SDS011;13500;52.514;13.462;2023-07-13T15:26:43;5.10;;;1.53;;
8654;SDS011;13500;52.514;13.462;2023-07-13T15:29:15;3.03;;;1.57;;
8654;SDS011;13500;52.514;13.462;2023-07-13T15:31:43;2.87;;;1.70;;
8654;SDS011;13500;52.514;13.462;2023-07-13T15:34:13;2.70;;;1.80;;
8654;SDS011;13500;52.514;13.462;2023-07-13T15:36:43;3.33;;;1.40;;
8654;SDS011;13500;52.514;13.462;2023-07-13T15:39:13;4.70;;;1.57;;
8654;SDS011;13500;52.514;13.462;2023-07-13T15:41:43;2.33;;;1.80;;
8654;SDS011;13500;52.514;13.462;2023-07-13T15:44:25;2.33;;;1.80;;
8654;SDS011;13500;52.514;13.462;2023-07-13T15:46:54;3.63;;;2.10;;
8654;SDS011;13500;52.514;13.462;2023-07-13T15:49:23;3.17;;;1.77;;
8654;SDS011;13500;52.514;13.462;2023-07-13T15:51:51;2.60;;;2.07;;
8654;SDS011;13500;52.514;13.462;2023-07-13T15:54:19;2.40;;;1.57;;
8654;SDS011;13500;52.514;13.462;2023-07-13T15:56:50;4.17;;;1.63;;
8654;SDS011;13500;52.514;13.462;2023-07-13T15:59:21;5.07;;;1.70;;
8654;SDS011;13500;52.514;13.462;2023-07-13T16:01:49;3.37;;;1.67;;
8654;SDS011;13500;52.514;13.462;2023-07-13T16:04:17;4.77;;;1.63;;
8654;SDS011;13500;52.514;13.462;2023-07-13T16:06:46;4.73;;;2.10;;
8654;SDS011;13500;52.514;13.462;2023-07-13T16:09:17;3.47;;;1.83;;
8654;SDS011;13500;52.514;13.462;2023-07-13T16:11:46;2.70;;;1.70;;
8654;SDS011;13500;52.514;13.462;2023-07-13T16:14:16;3.63;;;1.80;;
8654;SDS011;13500;52.514;13.462;2023-07-13T16:16:44;3.27;;;1.53;;
8654;SDS011;13500;52.514;13.462;2023-07-13T16:19:13;2.97;;;1.73;;
8654;SDS011;13500;52.514;13.462;2023-07-13T16:21:44;3.00;;;1.60;;
8654;SDS011;13500;52.514;13.462;2023-07-13T16:24:16;2.67;;;2.10;;
8654;SDS011;13500;52.514;13.462;2023-07-13T16:26:47;4.30;;;2.43;;
8654;SDS011;13500;52.514;13.462;2023-07-13T16:29:18;2.33;;;1.70;;
8654;SDS011;13500;52.514;13.462;2023-07-13T16:31:57;3.80;;;1.80;;
8654;SDS011;13500;52.514;13.462;2023-07-13T16:34:26;3.60;;;1.93;;
8654;SDS011;13500;52.514;13.462;2023-07-13T16:36:54;3.97;;;1.80;;
8654;SDS011;13500;52.514;13.462;2023-07-13T16:39:23;2.70;;;2.17;;
8654;SDS011;13500;52.514;13.462;2023-07-13T16:41:51;3.10;;;2.00;;
8654;SDS011;13500;52.514;13.462;2023-07-13T16:44:22;5.13;;;2.40;;
8654;SDS011;13500;52.514;13.462;2023-07-13T16:46:51;3.40;;;2.00;;
8654;SDS011;13500;52.514;13.462;2023-07-13T16:49:23;3.40;;;1.90;;
8654;SDS011;13500;52.514;13.462;2023-07-13T16:51:52;4.00;;;1.90;;
8654;SDS011;13500;52.514;13.462;2023-07-13T16:54:21;4.40;;;2.20;;
8654;SDS011;13500;52.514;13.462;2023-07-13T16:56:49;2.27;;;1.80;;
8654;SDS011;13500;52.514;13.462;2023-07-13T16:59:18;5.27;;;2.00;;
8654;SDS011;13500;52.514;13.462;2023-07-13T17:01:48;3.87;;;2.07;;
8654;SDS011;13500;52.514;13.462;2023-07-13T17:04:16;3.73;;;1.77;;
8654;SDS011;13500;52.514;13.462;2023-07-13T17:06:49;3.07;;;1.97;;
8654;SDS011;13500;52.514;13.462;2023-07-13T17:09:18;3.00;;;2.07;;
8654;SDS011;13500;52.514;13.462;2023-07-13T17:11:46;3.20;;;2.10;;
8654;SDS011;13500;52.514;13.462;2023-07-13T17:14:14;8.10;;;2.17;;
8654;SDS011;13500;52.514;13.462;2023-07-13T17:16:46;9.90;;;2.30;;
8654;SDS011;13500;52.514;13.462;2023-07-13T17:19:16;7.20;;;2.60;;
8654;SDS011;13500;52.514;13.462;2023-07-13T17:21:46;8.70;;;2.07;;
8654;SDS011;13500;52.514;13.462;2023-07-13T17:24:15;8.27;;;2.40;;
8654;SDS011;13500;52.514;13.462;2023-07-13T17:26:45;6.80;;;2.07;;
8654;SDS011;13500;52.514;13.462;2023-07-13T17:29:14;8.27;;;2.40;;
8654;SDS011;13500;52.514;13.462;2023-07-13T17:31:42;5.37;;;2.23;;
8654;SDS011;13500;52.514;13.462;2023-07-13T17:34:12;3.90;;;2.10;;
8654;SDS011;13500;52.514;13.462;2023-07-13T17:36:44;6.50;;;2.33;;
8654;SDS011;13500;52.514;13.462;2023-07-13T17:39:13;4.20;;;2.30;;
8654;SDS011;13500;52.514;13.462;2023-07-13T17:41:42;5.73;;;2.60;;
8654;SDS011;13500;52.514;13.462;2023-07-13T17:44:11;6.23;;;2.57;;
8654;SDS011;13500;52.514;13.462;2023-07-13T17:46:39;5.23;;;2.00;;
8654;SDS011;13500;52.514;13.462;2023-07-13T17:49:13;7.27;;;2.10;;
8654;SDS011;13500;52.514;13.462;2023-07-13T17:51:48;3.73;;;2.10;;
8654;SDS011;13500;52.514;13.462;2023-07-13T17:54:17;5.93;;;2.30;;
8654;SDS011;13500;52.514;13.462;2023-07-13T17:56:46;5.73;;;2.10;;
8654;SDS011;13500;52.514;13.462;2023-07-13T17:59:14;3.33;;;1.97;;
8654;SDS011;13500;52.514;13.462;2023-07-13T18:01:42;3.53;;;2.93;;
8654;SDS011;13500;52.514;13.462;2023-07-13T18:04:11;4.80;;;2.10;;
8654;SDS011;13500;52.514;13.462;2023-07-13T18:06:43;3.53;;;2.00;;
8654;SDS011;13500;52.514;13.462;2023-07-13T18:09:21;4.07;;;2.30;;
8654;SDS011;13500;52.514;13.462;2023-07-13T18:11:50;3.77;;;2.20;;
8654;SDS011;13500;52.514;13.462;2023-07-13T18:14:18;3.13;;;2.27;;
8654;SDS011;13500;52.514;13.462;2023-07-13T18:16:49;3.03;;;2.30;;
8654;SDS011;13500;52.514;13.462;2023-07-13T18:19:23;4.63;;;2.83;;
8654;SDS011;13500;52.514;13.462;2023-07-13T18:21:53;10.07;;;2.70;;
8654;SDS011;13500;52.514;13.462;2023-07-13T18:24:23;3.87;;;2.30;;
8654;SDS011;13500;52.514;13.462;2023-07-13T18:26:52;3.33;;;2.20;;
8654;SDS011;13500;52.514;13.462;2023-07-13T18:29:20;3.17;;;2.40;;
8654;SDS011;13500;52.514;13.462;2023-07-13T18:31:48;6.17;;;2.57;;